Tina-c — 2APY2 — position and weather

sailwx.info

Track history (hours):
 
Tides and Currents Weather Stations Pressure Air Temp Water Temp Dewpoint Dewpoint Depression Visibility Wind Speed Wind Dir Waves Ship Positions

Tina-c

Last reported at 2017-Feb-19 18:33 UTC. Time now 2017-Feb-19 18:44 UTC.
Position N 51°28' E 000°20'.

Length 99 m; draft 4 m.

Type: Cargo ship. MMSI: 235061987.

Date/timePositionNaut miles runAvg speedWind from/ knotsBaromVisibWave heightAir tempDewpointWater temp
2017-Feb-19 18:33N 51°28' E 000°20'0 0.1
2017-Feb-19 17:34N 51°28' E 000°20'5 5.0
2017-Feb-19 16:34N 51°29' E 000°28'17 7.9
2017-Feb-19 14:24N 51°29' E 000°55'810.0
2017-Feb-19 13:34N 51°29' E 001°08'1210.9
2017-Feb-19 12:27N 51°28' E 001°28'3 3.3
2017-Feb-19 11:34N 51°25' E 001°27'0 0.0
2017-Feb-19 10:34N 51°25' E 001°27'0 0.0
2017-Feb-19 09:34N 51°25' E 001°27'0 0.0
2017-Feb-19 08:34N 51°25' E 001°27'0 0.0
2017-Feb-19 07:33N 51°25' E 001°27'0 0.0
2017-Feb-19 06:31N 51°25' E 001°27'6 6.1
2017-Feb-19 05:33N 51°22' E 001°35'1110.5
2017-Feb-19 04:33N 51°12' E 001°36'9 9.1
2017-Feb-19 03:33N 51°02' E 001°35'1110.5
2017-Feb-19 02:29N 50°52' E 001°26'46 9.2
2017-Feb-18 21:28N 50°25' E 000°28'1010.4
2017-Feb-18 20:29N 50°23' E 000°12'910.3
2017-Feb-18 19:33N 50°20' W 000°02'1010.2
2017-Feb-18 18:33N 50°17' W 000°17'1010.1
2017-Feb-18 17:33N 50°14' W 000°33'1010.4
2017-Feb-18 16:33N 50°12' W 000°48'1111.1
2017-Feb-18 15:33N 50°09' W 001°05'1212.1
2017-Feb-18 14:33N 50°05' W 001°23'1313.0
2017-Feb-18 13:33N 50°02' W 001°43'1413.6
2017-Feb-18 12:33N 49°59' W 002°04'1413.4
2017-Feb-18 11:31N 49°55' W 002°24'1212.8
2017-Feb-18 10:33N 49°52' W 002°43'1312.6
2017-Feb-18 09:30N 49°48' W 003°03'1112.1
2017-Feb-18 08:33N 49°49' W 003°20'1211.8
2017-Feb-18 07:33N 49°49' W 003°39'1211.3
2017-Feb-18 06:31N 49°51' W 003°57'1511.3
2017-Feb-18 05:13N 49°51' W 004°20'252 9.1
2017-Feb-17 01:33N 53°60' W 005°23'1111.3
2017-Feb-17 00:33N 54°11' W 005°21'1211.9
2017-Feb-16 23:33N 54°23' W 005°18'1212.5
2017-Feb-16 22:33N 54°35' W 005°22'1111.1
2017-Feb-16 21:33N 54°43' W 005°36'12 2.7
2017-Feb-16 17:19N 54°37' W 005°54'0 0.0
2017-Feb-16 15:28N 54°37' W 005°54'0 0.0
2017-Feb-16 14:19N 54°37' W 005°54'0 0.0
2017-Feb-16 12:22N 54°37' W 005°54'0 0.0
2017-Feb-16 11:28N 54°37' W 005°54'0 0.0
2017-Feb-16 07:29N 54°37' W 005°54'0 0.0
2017-Feb-16 06:30N 54°37' W 005°54'0 0.0
2017-Feb-16 05:33N 54°37' W 005°54'0 0.0
2017-Feb-16 04:29N 54°37' W 005°54'0 0.0
2017-Feb-16 03:33N 54°37' W 005°54'0 0.0
2017-Feb-16 02:33N 54°37' W 005°54'0 0.0
2017-Feb-16 01:33N 54°37' W 005°54'0 0.0
2017-Feb-16 00:33N 54°37' W 005°54'0 0.0
2017-Feb-15 23:30N 54°37' W 005°54'0 0.0
2017-Feb-15 22:33N 54°37' W 005°54'0 0.0
2017-Feb-15 21:33N 54°37' W 005°54'0 0.0
2017-Feb-15 20:31N 54°37' W 005°54'0 0.0
2017-Feb-15 19:19N 54°37' W 005°54'0 0.0
2017-Feb-15 18:30N 54°37' W 005°54'0 0.0
2017-Feb-15 17:19N 54°37' W 005°54'1 0.9
2017-Feb-15 16:32N 54°38' W 005°53'9 8.8
2017-Feb-15 15:33N 54°43' W 005°41'9 9.3
2017-Feb-15 14:33N 54°41' W 005°25'1211.5
2017-Feb-15 13:33N 54°30' W 005°17'  
2017-Feb-10 01:33N 46°55' W 002°52'1111.4
2017-Feb-10 00:33N 47°01' W 002°38'10 3.1
2017-Feb-09 21:12N 47°09' W 002°27'2 3.3
2017-Feb-09 20:33N 47°07' W 002°26'10 9.7
2017-Feb-09 19:33N 47°14' W 002°16'  
Track history (hours):
 
Tides and Currents Weather Stations Pressure Air Temp Water Temp Dewpoint Dewpoint Depression Visibility Wind Speed Wind Dir Waves Ship Positions

Tina-c

Last reported at 2017-Feb-19 18:33 UTC. Time now 2017-Feb-19 18:44 UTC.
Position N 51°28' E 000°20'.

Length 99 m; draft 4 m.

Type: Cargo ship. MMSI: 235061987.

Date/timePositionNaut miles runAvg speedWind from/ knotsBaromVisibWave heightAir tempDewpointWater temp
2017-Feb-19 18:33N 51°28' E 000°20'0 0.1
2017-Feb-19 17:34N 51°28' E 000°20'5 5.0
2017-Feb-19 16:34N 51°29' E 000°28'17 7.9
2017-Feb-19 14:24N 51°29' E 000°55'810.0
2017-Feb-19 13:34N 51°29' E 001°08'1210.9
2017-Feb-19 12:27N 51°28' E 001°28'3 3.3
2017-Feb-19 11:34N 51°25' E 001°27'0 0.0
2017-Feb-19 10:34N 51°25' E 001°27'0 0.0
2017-Feb-19 09:34N 51°25' E 001°27'0 0.0
2017-Feb-19 08:34N 51°25' E 001°27'0 0.0
2017-Feb-19 07:33N 51°25' E 001°27'0 0.0
2017-Feb-19 06:31N 51°25' E 001°27'6 6.1
2017-Feb-19 05:33N 51°22' E 001°35'1110.5
2017-Feb-19 04:33N 51°12' E 001°36'9 9.1
2017-Feb-19 03:33N 51°02' E 001°35'1110.5
2017-Feb-19 02:29N 50°52' E 001°26'46 9.2
2017-Feb-18 21:28N 50°25' E 000°28'1010.4
2017-Feb-18 20:29N 50°23' E 000°12'910.3
2017-Feb-18 19:33N 50°20' W 000°02'1010.2
2017-Feb-18 18:33N 50°17' W 000°17'1010.1
2017-Feb-18 17:33N 50°14' W 000°33'1010.4
2017-Feb-18 16:33N 50°12' W 000°48'1111.1
2017-Feb-18 15:33N 50°09' W 001°05'1212.1
2017-Feb-18 14:33N 50°05' W 001°23'1313.0
2017-Feb-18 13:33N 50°02' W 001°43'1413.6
2017-Feb-18 12:33N 49°59' W 002°04'1413.4
2017-Feb-18 11:31N 49°55' W 002°24'1212.8
2017-Feb-18 10:33N 49°52' W 002°43'1312.6
2017-Feb-18 09:30N 49°48' W 003°03'1112.1
2017-Feb-18 08:33N 49°49' W 003°20'1211.8
2017-Feb-18 07:33N 49°49' W 003°39'1211.3
2017-Feb-18 06:31N 49°51' W 003°57'1511.3
2017-Feb-18 05:13N 49°51' W 004°20'252 9.1
2017-Feb-17 01:33N 53°60' W 005°23'1111.3
2017-Feb-17 00:33N 54°11' W 005°21'1211.9
2017-Feb-16 23:33N 54°23' W 005°18'1212.5
2017-Feb-16 22:33N 54°35' W 005°22'1111.1
2017-Feb-16 21:33N 54°43' W 005°36'12 2.7
2017-Feb-16 17:19N 54°37' W 005°54'0 0.0
2017-Feb-16 15:28N 54°37' W 005°54'0 0.0
2017-Feb-16 14:19N 54°37' W 005°54'0 0.0
2017-Feb-16 12:22N 54°37' W 005°54'0 0.0
2017-Feb-16 11:28N 54°37' W 005°54'0 0.0
2017-Feb-16 07:29N 54°37' W 005°54'0 0.0
2017-Feb-16 06:30N 54°37' W 005°54'0 0.0
2017-Feb-16 05:33N 54°37' W 005°54'0 0.0
2017-Feb-16 04:29N 54°37' W 005°54'0 0.0
2017-Feb-16 03:33N 54°37' W 005°54'0 0.0
2017-Feb-16 02:33N 54°37' W 005°54'0 0.0
2017-Feb-16 01:33N 54°37' W 005°54'0 0.0
2017-Feb-16 00:33N 54°37' W 005°54'0 0.0
2017-Feb-15 23:30N 54°37' W 005°54'0 0.0
2017-Feb-15 22:33N 54°37' W 005°54'0 0.0
2017-Feb-15 21:33N 54°37' W 005°54'0 0.0
2017-Feb-15 20:31N 54°37' W 005°54'0 0.0
2017-Feb-15 19:19N 54°37' W 005°54'0 0.0
2017-Feb-15 18:30N 54°37' W 005°54'0 0.0
2017-Feb-15 17:19N 54°37' W 005°54'1 0.9
2017-Feb-15 16:32N 54°38' W 005°53'9 8.8
2017-Feb-15 15:33N 54°43' W 005°41'9 9.3
2017-Feb-15 14:33N 54°41' W 005°25'1211.5
2017-Feb-15 13:33N 54°30' W 005°17'  
2017-Feb-10 01:33N 46°55' W 002°52'1111.4
2017-Feb-10 00:33N 47°01' W 002°38'10 3.1
2017-Feb-09 21:12N 47°09' W 002°27'2 3.3
2017-Feb-09 20:33N 47°07' W 002°26'10 9.7
2017-Feb-09 19:33N 47°14' W 002°16'  

Dump ship's entire track history